createdAt,value
2022-08-09T00:00:05.864Z,67.43282
2022-08-09T00:06:15.231Z,66.12164
2022-08-09T00:11:24.473Z,69.3407
2022-08-09T00:16:36.644Z,68.99154
2022-08-09T00:21:55.568Z,65.90662
2022-08-09T00:26:59.692Z,69.49979
2022-08-09T00:32:01.752Z,67.86889
2022-08-09T00:37:04.216Z,67.85663
2022-08-09T00:44:16.418Z,70.61111
2022-08-09T00:49:28.090Z,70.91988
2022-08-09T00:54:31.523Z,70.49053
2022-08-09T00:59:46.025Z,67.62874
2022-08-09T01:04:49.189Z,68.01714
2022-08-09T01:09:51.958Z,68.42946
2022-08-09T01:14:53.541Z,68.25835
2022-08-09T01:20:02.696Z,68.05891
2022-08-09T01:25:05.069Z,68.91607
2022-08-09T01:30:08.273Z,68.86597
2022-08-09T01:35:38.319Z,67.1638
2022-08-09T01:40:40.537Z,69.89285
2022-08-09T01:45:46.219Z,70.5239
2022-08-09T01:50:55.232Z,68.90033
2022-08-09T01:55:56.960Z,69.28483
2022-08-09T02:00:58.564Z,69.23613
2022-08-09T02:06:06.285Z,70.76876
2022-08-09T02:11:17.306Z,71.69838
2022-08-09T02:16:19.287Z,70.98417
2022-08-09T02:21:35.592Z,72.95447
2022-08-09T02:26:42.742Z,71.03302
2022-08-09T02:31:44.393Z,70.67409
2022-08-09T02:36:47.015Z,73.77665
2022-08-09T02:41:54.063Z,78.60233
2022-08-09T02:46:56.831Z,82.96438
2022-08-09T02:51:58.489Z,82.0855
2022-08-09T02:57:01.117Z,82.48358
2022-08-09T03:02:16.885Z,83.06492
2022-08-09T03:07:19.026Z,78.58773
2022-08-09T03:12:20.466Z,79.91526
2022-08-09T03:17:26.758Z,77.9573
2022-08-09T03:22:30.359Z,81.81949
2022-08-09T03:27:44.574Z,81.14948
2022-08-09T03:32:46.501Z,78.6023
2022-08-09T03:37:55.835Z,76.98082
2022-08-09T03:42:58.751Z,75.45046
2022-08-09T03:48:00.413Z,81.70338
2022-08-09T03:53:03.182Z,83.57121
2022-08-09T03:58:14.901Z,81.83209
2022-08-09T04:03:24.822Z,81.47663
2022-08-09T04:08:37.341Z,79.78599
2022-08-09T04:14:36.723Z,80.84678
2022-08-09T04:19:51.406Z,85.61294
2022-08-09T04:24:57.854Z,79.42251
2022-08-09T04:29:59.319Z,78.59445
2022-08-09T04:35:01.591Z,78.93369
2022-08-09T04:40:03.435Z,80.51166
2022-08-09T04:45:05.237Z,81.82933
2022-08-09T04:50:06.806Z,82.152
2022-08-09T04:55:12.827Z,80.86135
2022-08-09T05:00:16.722Z,82.89146
2022-08-09T05:05:18.989Z,81.00734
2022-08-09T05:10:33.571Z,82.15617
2022-08-09T05:15:47.692Z,81.61826
2022-08-09T05:20:49.930Z,81.47764
2022-08-09T05:25:52.714Z,82.54264
2022-08-09T05:30:54.159Z,79.69914
2022-08-09T05:35:57.555Z,83.90573
2022-08-09T05:41:00.097Z,83.19514
2022-08-09T05:46:01.725Z,85.65865
2022-08-09T05:51:30.375Z,84.80176
2022-08-09T05:56:54.837Z,85.25334
2022-08-09T06:01:58.833Z,83.41245
2022-08-09T06:07:00.719Z,83.28874
2022-08-09T06:12:03.178Z,81.12925
2022-08-09T06:17:05.031Z,81.40054
2022-08-09T06:22:15.003Z,78.54366
2022-08-09T06:27:17.190Z,78.81317
2022-08-09T06:32:58.926Z,78.74802
2022-08-09T06:38:47.295Z,76.06874
2022-08-09T06:43:53.203Z,73.70307
2022-08-09T06:48:57.387Z,71.57313
2022-08-09T06:54:01.316Z,70.86892
2022-08-09T07:00:48.647Z,67.56585
2022-08-09T07:06:03.431Z,64.70241
2022-08-09T07:11:06.677Z,63.15936
2022-08-09T07:16:41.087Z,62.22442
2022-08-09T07:21:56.938Z,61.75979
2022-08-09T07:27:00.372Z,56.86686
2022-08-09T07:32:02.108Z,55.12384
2022-08-09T07:37:04.759Z,54.77731
2022-08-09T07:42:06.560Z,53.28147
2022-08-09T07:47:09.854Z,53.46601
2022-08-09T07:52:16.798Z,53.89285
2022-08-09T07:57:19.033Z,53.91825
2022-08-09T08:02:22.485Z,50.98135
2022-08-09T08:08:43.326Z,50.5124
2022-08-09T08:14:04.836Z,50.72915
2022-08-09T08:19:08.041Z,48.78359
2022-08-09T08:24:12.046Z,47.36992
2022-08-09T08:29:20.131Z,47.29036
2022-08-09T08:34:29.104Z,46.07445
2022-08-09T08:39:39.185Z,45.47401
2022-08-09T08:44:41.741Z,43.51086
2022-08-09T08:49:48.290Z,41.36766
2022-08-09T08:54:50.896Z,43.58794
2022-08-09T08:59:57.269Z,42.36993
2022-08-09T09:05:05.994Z,41.58012
2022-08-09T09:10:11.616Z,37.77523
2022-08-09T09:15:13.044Z,37.89157
2022-08-09T09:20:30.449Z,37.54302
2022-08-09T09:26:03.096Z,36.45004
2022-08-09T09:31:17.532Z,36.79344
2022-08-09T09:37:03.854Z,34.25113
2022-08-09T09:42:08.943Z,36.65081
2022-08-09T09:47:12.606Z,34.39299
2022-08-09T09:52:16.396Z,33.52029
2022-08-09T09:58:03.628Z,32.02992
2022-08-09T10:03:14.247Z,31.90221
2022-08-09T10:08:27.566Z,30.44362
2022-08-09T10:13:45.227Z,29.53344
2022-08-09T10:18:51.337Z,28.32114
2022-08-09T10:23:56.250Z,29.45356
2022-08-09T10:29:21.019Z,30.51694
2022-08-09T10:34:37.613Z,29.6722
2022-08-09T10:39:40.690Z,28.17005
2022-08-09T10:44:51.058Z,28.89255
2022-08-09T10:49:54.611Z,28.92953
2022-08-09T10:54:56.498Z,26.93447
2022-08-09T11:00:01.480Z,27.62511
2022-08-09T11:05:03.789Z,28.87483
2022-08-09T11:10:06.380Z,27.22191
2022-08-09T11:15:14.285Z,27.84854
2022-08-09T11:20:22.547Z,27.20196
2022-08-09T11:25:26.082Z,28.7359
2022-08-09T11:30:47.929Z,26.1302
2022-08-09T11:35:51.932Z,26.20368
2022-08-09T11:40:54.771Z,26.85809
2022-08-09T11:45:57.628Z,26.37178
2022-08-09T11:52:48.909Z,27.10672
2022-08-09T11:58:06.226Z,24.89358
2022-08-09T12:03:40.957Z,25.32477
2022-08-09T12:08:57.967Z,24.47586
2022-08-09T12:14:10.580Z,23.82366
2022-08-09T12:19:30.372Z,24.01549
2022-08-09T12:24:31.804Z,22.9337
2022-08-09T12:29:44.644Z,22.26972
2022-08-09T12:34:54.227Z,23.73901
2022-08-09T12:39:56.195Z,22.49559
2022-08-09T12:44:59.350Z,23.47854
2022-08-09T12:50:01.829Z,24.09585
2022-08-09T12:56:11.562Z,23.19381
2022-08-09T13:01:18.214Z,24.33343
2022-08-09T13:06:23.461Z,24.08928
2022-08-09T13:11:26.284Z,23.8396
2022-08-09T13:16:27.949Z,24.72791
2022-08-09T13:22:36.525Z,22.92855
2022-08-09T13:27:54.913Z,22.24753
2022-08-09T13:32:58.442Z,21.79487
2022-08-09T13:38:00.005Z,22.37601
2022-08-09T13:43:05.259Z,21.60751
2022-08-09T13:48:11.227Z,22.01731
2022-08-09T13:53:12.879Z,22.22666
2022-08-09T13:58:14.581Z,22.96355
2022-08-09T14:04:02.930Z,22.47746
2022-08-09T14:09:06.623Z,23.12445
2022-08-09T14:14:24.006Z,22.99086
2022-08-09T14:19:33.080Z,22.97155
2022-08-09T14:24:35.425Z,22.02463
2022-08-09T14:30:34.749Z,22.55013
2022-08-09T14:35:52.314Z,22.86865
2022-08-09T14:41:01.593Z,23.0585
2022-08-09T14:46:56.604Z,23.61439
2022-08-09T14:52:06.840Z,23.84486
2022-08-09T14:57:08.565Z,24.08745
2022-08-09T15:02:10.145Z,24.49739
2022-08-09T15:07:14.295Z,25.56099
2022-08-09T15:12:18.835Z,26.63796
2022-08-09T15:17:21.822Z,26.94286
2022-08-09T15:22:26.156Z,27.40446
2022-08-09T15:27:27.886Z,28.12279
2022-08-09T15:32:33.140Z,29.11777
2022-08-09T15:37:36.933Z,29.48822
2022-08-09T15:42:40.158Z,30.3623
2022-08-09T15:48:02.575Z,29.73665
2022-08-09T15:53:32.706Z,30.30384
2022-08-09T15:59:07.575Z,32.71451
2022-08-09T16:04:13.459Z,32.73042
2022-08-09T16:09:15.549Z,33.69714
2022-08-09T16:14:17.015Z,33.76562
2022-08-09T16:19:25.887Z,34.80834
2022-08-09T16:24:33.715Z,34.25633
2022-08-09T16:29:38.014Z,34.12855
2022-08-09T16:34:55.673Z,34.55484
2022-08-09T16:40:05.008Z,34.39676
2022-08-09T16:45:07.823Z,34.23351
2022-08-09T16:50:32.578Z,35.26452
2022-08-09T16:55:57.842Z,35.41164
2022-08-09T17:01:02.028Z,36.18298
2022-08-09T17:06:28.297Z,36.21968
2022-08-09T17:11:41.234Z,36.32973
2022-08-09T17:16:44.719Z,36.37683
2022-08-09T17:21:47.212Z,37.60053
2022-08-09T17:26:53.514Z,37.53325
2022-08-09T17:31:55.455Z,38.09573
2022-08-09T17:37:02.302Z,36.83686
2022-08-09T17:42:04.975Z,37.2972
2022-08-09T17:47:10.466Z,38.19468
2022-08-09T17:52:22.332Z,38.02332
2022-08-09T17:58:03.262Z,39.96896
2022-08-09T18:03:06.887Z,40.97499
2022-08-09T18:08:11.197Z,40.55557
2022-08-09T18:13:53.677Z,40.96893
2022-08-09T18:19:03.585Z,39.43054
2022-08-09T18:24:12.275Z,40.96256
2022-08-09T18:30:41.260Z,40.74517
2022-08-09T18:35:58.765Z,42.72648
2022-08-09T18:41:03.956Z,43.14772
2022-08-09T18:46:47.641Z,42.80542
2022-08-09T18:51:57.892Z,43.41466
2022-08-09T18:57:05.237Z,43.47319
2022-08-09T19:02:09.258Z,43.83233
2022-08-09T19:07:12.713Z,45.68348
2022-08-09T19:12:20.820Z,45.37962
2022-08-09T19:17:24.418Z,46.02141
2022-08-09T19:22:33.974Z,47.66263
2022-08-09T19:27:37.586Z,48.94903
2022-08-09T19:32:40.760Z,49.51737
2022-08-09T19:37:56.007Z,48.794
2022-08-09T19:42:59.776Z,48.1088
2022-08-09T19:48:05.035Z,49.54212
2022-08-09T19:53:07.365Z,48.42912
2022-08-09T19:58:17.922Z,49.59872
2022-08-09T20:04:10.934Z,49.91581
2022-08-09T20:09:44.895Z,49.347
2022-08-09T20:14:53.162Z,52.53172
2022-08-09T20:19:56.479Z,51.71696
2022-08-09T20:24:58.477Z,51.48608
2022-08-09T20:30:02.760Z,52.16579
2022-08-09T20:35:05.595Z,52.634
2022-08-09T20:40:15.847Z,55.60771
2022-08-09T20:45:59.345Z,53.94559
2022-08-09T20:51:19.606Z,55.94657
2022-08-09T20:56:21.999Z,54.30008
2022-08-09T21:01:35.199Z,54.15958
2022-08-09T21:06:52.584Z,52.72959
2022-08-09T21:18:21.688Z,54.42677
2022-08-09T21:23:47.886Z,54.24564
2022-08-09T21:28:55.890Z,53.1582
2022-08-09T21:33:58.783Z,54.18275
2022-08-09T21:39:00.369Z,54.53574
2022-08-09T21:44:02.000Z,55.34417
2022-08-09T21:49:05.475Z,56.28852
2022-08-09T21:54:09.200Z,55.38542
2022-08-09T21:59:16.200Z,56.98739
2022-08-09T22:04:17.909Z,56.09276
2022-08-09T22:09:22.276Z,56.44525
2022-08-09T22:14:25.398Z,56.83461
2022-08-09T22:19:58.353Z,56.87101
2022-08-09T22:26:05.977Z,57.50373
2022-08-09T22:31:13.919Z,59.14469
2022-08-09T22:36:19.225Z,61.20062
2022-08-09T22:41:21.457Z,61.81547
2022-08-09T22:48:12.788Z,60.51961
2022-08-09T22:53:44.401Z,61.12263
2022-08-09T22:59:05.425Z,62.91339
2022-08-09T23:04:53.710Z,62.70665
2022-08-09T23:09:55.995Z,64.61097
2022-08-09T23:14:57.629Z,62.25301
2022-08-09T23:20:06.825Z,60.48553
2022-08-09T23:25:09.932Z,60.82596
2022-08-09T23:30:11.893Z,58.99504
2022-08-09T23:35:13.432Z,60.09913
2022-08-09T23:40:14.925Z,60.83603
2022-08-09T23:45:36.877Z,60.266
2022-08-09T23:50:40.103Z,60.0524
2022-08-09T23:55:47.303Z,59.78609
